KSAV/SAV METAR and TAF weather

Enter ICAO airport designator
Station Type Date Time Source
KSAV METAR 2021/04/18 02:53 UTC NOAA

KSAV 180253Z 21006KT 10SM FEW060 SCT110 19/16 A2984 RMK AO2 SLP102 T01940161 50003


Station Type Date Time Source
KSAV Decoded METAR 2021/04/18 02:53 UTC NOAA

SAVANNAH INTERNATIONAL AIRPORT , GA, United States (KSAV) 32-07N 81-12W 14M
Apr 17, 2021 - 10:53 PM EDT / 2021.04.18 0253 UTC
Wind: from the SSW (210 degrees) at 7 MPH (6 KT):0
Visibility: 10 mile(s):0
Sky conditions: partly cloudy
Temperature: 66.9 F (19.4 C)
Dew Point: 61.0 F (16.1 C)
Relative Humidity: 81%
Pressure (altimeter): 29.84 in. Hg (1010 hPa)
Pressure tendency: 0.01 inches (0.3 hPa) higher than three hours ago
ob: KSAV 180253Z 21006KT 10SM FEW060 SCT110 19/16 A2984 RMK AO2 SLP102 T01940161 50003
cycle: 3

Station Type Date Time Source
KSAV TAF 2021/04/17 18:36 UTC NOAA

TAF KSAV 171735Z 1718/1818 22007KT P6SM SCT030 BKN120
FM180000 VRB05KT P6SM BKN050 PROB30 1803/1805 -SHRA OVC030
FM180500 25004KT P6SM -SHRA OVC030
FM181100 29005KT P6SM BKN035

Example: see airport list